createdAt,value
2022-09-23T00:00:23.275Z,85.28
2022-09-23T00:01:23.347Z,85.18
2022-09-23T00:02:23.346Z,85.08
2022-09-23T00:03:23.234Z,85.18
2022-09-23T00:04:23.208Z,85.28
2022-09-23T00:05:23.229Z,85.18
2022-09-23T00:06:23.193Z,85.49
2022-09-23T00:07:23.237Z,86.11
2022-09-23T00:08:23.158Z,85.60
2022-09-23T00:09:23.162Z,85.28
2022-09-23T00:10:23.170Z,84.87
2022-09-23T00:11:23.152Z,84.87
2022-09-23T00:12:23.109Z,85.28
2022-09-23T00:13:23.104Z,85.39
2022-09-23T00:14:23.103Z,85.39
2022-09-23T00:15:23.070Z,85.32
2022-09-23T00:16:23.167Z,85.42
2022-09-23T00:17:23.061Z,86.25
2022-09-23T00:18:23.057Z,86.25
2022-09-23T00:19:23.014Z,86.57
2022-09-23T00:20:23.021Z,86.36
2022-09-23T00:21:23.003Z,86.05
2022-09-23T00:22:22.973Z,85.94
2022-09-23T00:23:23.003Z,85.63
2022-09-23T00:24:22.956Z,85.84
2022-09-23T00:25:22.945Z,85.63
2022-09-23T00:26:22.923Z,85.84
2022-09-23T00:27:22.908Z,86.15
2022-09-23T00:28:22.898Z,86.05
2022-09-23T00:29:22.909Z,85.94
2022-09-23T00:30:22.938Z,86.57
2022-09-23T00:31:22.936Z,86.88
2022-09-23T00:32:22.847Z,87.08
2022-09-23T00:33:22.844Z,87.18
2022-09-23T00:34:22.836Z,86.91
2022-09-23T00:35:22.804Z,86.60
2022-09-23T00:36:22.815Z,86.60
2022-09-23T00:37:22.783Z,87.33
2022-09-23T00:38:22.764Z,87.74
2022-09-23T00:39:22.778Z,87.74
2022-09-23T00:40:22.804Z,87.85
2022-09-23T00:41:22.757Z,87.43
2022-09-23T00:42:22.708Z,88.06
2022-09-23T00:43:22.699Z,87.64
2022-09-23T00:44:22.721Z,87.23
2022-09-23T00:45:22.673Z,88.26
2022-09-23T00:46:22.753Z,87.85
2022-09-23T00:47:22.646Z,88.57
2022-09-23T00:48:22.642Z,88.16
2022-09-23T00:49:22.635Z,87.85
2022-09-23T00:50:22.629Z,87.64
2022-09-23T00:51:22.626Z,87.74
2022-09-23T00:52:22.580Z,87.64
2022-09-23T00:53:22.578Z,89.54
2022-09-23T00:54:22.550Z,90.26
2022-09-23T00:55:22.541Z,89.96
2022-09-23T00:56:22.598Z,89.44
2022-09-23T00:57:22.511Z,88.71
2022-09-23T00:58:22.518Z,88.09
2022-09-23T00:59:22.543Z,88.20
2022-09-23T01:00:22.505Z,88.40
2022-09-23T01:01:22.541Z,88.26
2022-09-23T01:02:22.482Z,88.26
2022-09-23T01:03:22.539Z,87.74
2022-09-23T01:04:22.440Z,87.54
2022-09-23T01:05:22.421Z,87.23
2022-09-23T01:06:22.445Z,87.12
2022-09-23T01:07:22.393Z,87.74
2022-09-23T01:08:22.402Z,88.16
2022-09-23T01:09:22.385Z,88.40
2022-09-23T01:10:22.345Z,87.88
2022-09-23T01:11:22.430Z,88.40
2022-09-23T01:12:22.314Z,87.99
2022-09-23T01:13:22.334Z,88.40
2022-09-23T01:14:22.281Z,88.30
2022-09-23T01:15:22.281Z,88.09
2022-09-23T01:16:22.300Z,87.88
2022-09-23T01:17:22.256Z,88.09
2022-09-23T01:18:22.269Z,88.20
2022-09-23T01:19:22.228Z,88.71
2022-09-23T01:20:22.214Z,89.13
2022-09-23T01:21:22.206Z,89.13
2022-09-23T01:22:22.189Z,89.23
2022-09-23T01:23:22.196Z,88.92
2022-09-23T01:24:22.155Z,89.03
2022-09-23T01:25:22.181Z,89.23
2022-09-23T01:26:22.126Z,89.03
2022-09-23T01:27:22.119Z,89.13
2022-09-23T01:28:22.114Z,89.34
2022-09-23T01:29:22.089Z,89.44
2022-09-23T01:30:22.104Z,89.44
2022-09-23T01:31:22.157Z,89.65
2022-09-23T01:32:22.049Z,89.79
2022-09-23T01:33:22.036Z,90.20
2022-09-23T01:34:22.047Z,90.10
2022-09-23T01:35:22.057Z,90.62
2022-09-23T01:36:22.007Z,90.83
2022-09-23T01:37:21.980Z,90.93
2022-09-23T01:38:21.985Z,90.72
2022-09-23T01:39:21.957Z,90.52
2022-09-23T01:40:22.089Z,90.20
2022-09-23T01:41:21.952Z,90.31
2022-09-23T01:42:21.931Z,90.83
2022-09-23T01:43:21.947Z,90.93
2022-09-23T01:44:21.910Z,90.72
2022-09-23T01:45:21.918Z,90.93
2022-09-23T01:46:21.866Z,90.77
2022-09-23T01:47:21.883Z,90.93
2022-09-23T01:48:22.138Z,90.83
2022-09-23T01:49:21.839Z,90.72
2022-09-23T01:50:21.807Z,90.41
2022-09-23T01:51:21.808Z,90.20
2022-09-23T01:52:21.813Z,91.14
2022-09-23T01:53:21.774Z,91.14
2022-09-23T01:54:21.768Z,91.14
2022-09-23T01:55:21.787Z,91.86
2022-09-23T01:56:21.739Z,91.35
2022-09-23T01:57:21.725Z,90.62
2022-09-23T01:58:21.707Z,90.31
2022-09-23T01:59:21.734Z,90.52
2022-09-23T02:00:21.689Z,90.00
2022-09-23T02:01:21.743Z,90.72
2022-09-23T02:02:21.718Z,91.14
2022-09-23T02:03:21.673Z,91.24
2022-09-23T02:04:21.626Z,91.03
2022-09-23T02:05:21.788Z,90.52
2022-09-23T02:06:21.606Z,90.62
2022-09-23T02:07:21.615Z,90.20
2022-09-23T02:08:21.574Z,89.89
2022-09-23T02:09:21.564Z,89.89
2022-09-23T02:10:21.614Z,90.31
2022-09-23T02:11:21.548Z,89.69
2022-09-23T02:12:21.514Z,89.48
2022-09-23T02:13:21.519Z,89.79
2022-09-23T02:14:21.495Z,89.79
2022-09-23T02:15:21.486Z,89.69
2022-09-23T02:16:21.577Z,90.31
2022-09-23T02:17:21.453Z,90.31
2022-09-23T02:18:21.437Z,89.69
2022-09-23T02:19:21.438Z,90.10
2022-09-23T02:20:21.407Z,90.62
2022-09-23T02:21:21.438Z,90.83
2022-09-23T02:22:21.389Z,91.70
2022-09-23T02:23:21.411Z,91.70
2022-09-23T02:24:21.383Z,91.80
2022-09-23T02:25:21.355Z,92.11
2022-09-23T02:26:21.359Z,92.63
2022-09-23T02:27:21.328Z,92.22
2022-09-23T02:28:21.318Z,92.01
2022-09-23T02:29:21.297Z,91.49
2022-09-23T02:30:21.289Z,91.91
2022-09-23T02:31:21.389Z,91.80
2022-09-23T02:32:21.259Z,91.24
2022-09-23T02:33:21.253Z,90.93
2022-09-23T02:34:21.256Z,90.41
2022-09-23T02:35:21.253Z,89.89
2022-09-23T02:36:21.216Z,89.79
2022-09-23T02:37:21.199Z,89.58
2022-09-23T02:38:21.185Z,90.93
2022-09-23T02:39:21.185Z,91.14
2022-09-23T02:40:21.221Z,90.83
2022-09-23T02:41:21.158Z,90.83
2022-09-23T02:42:21.128Z,91.28
2022-09-23T02:43:21.159Z,91.08
2022-09-23T02:44:21.108Z,91.18
2022-09-23T02:45:21.084Z,92.43
2022-09-23T02:46:21.227Z,92.32
2022-09-23T02:47:21.066Z,92.01
2022-09-23T02:48:21.046Z,91.80
2022-09-23T02:49:21.036Z,91.60
2022-09-23T02:50:21.020Z,91.49
2022-09-23T02:51:21.019Z,91.18
2022-09-23T02:52:21.021Z,90.87
2022-09-23T02:53:20.982Z,90.87
2022-09-23T02:54:20.966Z,91.08
2022-09-23T02:55:20.955Z,91.08
2022-09-23T02:56:20.956Z,90.87
2022-09-23T02:57:20.954Z,90.97
2022-09-23T02:58:20.923Z,91.18
2022-09-23T02:59:20.918Z,90.97
2022-09-23T03:00:20.885Z,90.77
2022-09-23T03:01:20.887Z,90.56
2022-09-23T03:02:20.945Z,90.35
2022-09-23T03:03:20.917Z,90.77
2022-09-23T03:04:20.839Z,91.39
2022-09-23T03:05:20.823Z,91.18
2022-09-23T03:06:20.816Z,91.28
2022-09-23T03:07:20.828Z,92.11
2022-09-23T03:08:20.783Z,92.32
2022-09-23T03:09:20.774Z,92.88
2022-09-23T03:10:20.754Z,93.08
2022-09-23T03:11:20.749Z,93.40
2022-09-23T03:12:20.728Z,93.50
2022-09-23T03:13:20.787Z,94.12
2022-09-23T03:14:20.703Z,93.91
2022-09-23T03:15:20.705Z,93.60
2022-09-23T03:16:20.748Z,93.35
2022-09-23T03:17:20.694Z,93.15
2022-09-23T03:18:20.660Z,93.25
2022-09-23T03:19:20.645Z,92.74
2022-09-23T03:20:20.622Z,92.63
2022-09-23T03:21:20.617Z,92.22
2022-09-23T03:22:20.626Z,92.22
2022-09-23T03:23:20.629Z,92.22
2022-09-23T03:24:20.571Z,93.77
2022-09-23T03:25:20.585Z,93.35
2022-09-23T03:26:20.548Z,93.56
2022-09-23T03:27:20.534Z,93.56
2022-09-23T03:28:20.519Z,93.56
2022-09-23T03:29:20.541Z,93.46
2022-09-23T03:30:20.499Z,93.35
2022-09-23T03:31:20.522Z,93.46
2022-09-23T03:32:20.470Z,93.35
2022-09-23T03:33:20.488Z,93.25
2022-09-23T03:34:20.481Z,92.94
2022-09-23T03:35:20.432Z,93.46
2022-09-23T03:36:20.419Z,93.15
2022-09-23T03:37:20.400Z,92.74
2022-09-23T03:38:20.393Z,92.43
2022-09-23T03:39:20.389Z,92.32
2022-09-23T03:40:20.442Z,93.66
2022-09-23T03:41:20.343Z,93.91
2022-09-23T03:42:20.342Z,94.23
2022-09-23T03:43:20.326Z,94.23
2022-09-23T03:44:20.332Z,94.43
2022-09-23T03:45:20.301Z,94.33
2022-09-23T03:46:20.289Z,94.43
2022-09-23T03:47:20.260Z,94.33
2022-09-23T03:48:20.263Z,94.02
2022-09-23T03:49:20.283Z,93.81
2022-09-23T03:50:20.259Z,93.40
2022-09-23T03:51:20.213Z,93.29
2022-09-23T03:52:20.209Z,93.19
2022-09-23T03:53:20.240Z,92.98
2022-09-23T03:54:20.187Z,92.88
2022-09-23T03:55:20.186Z,92.78
2022-09-23T03:56:20.157Z,92.98
2022-09-23T03:57:20.161Z,92.98
2022-09-23T03:58:20.127Z,92.88
2022-09-23T03:59:20.104Z,92.88
2022-09-23T04:00:20.130Z,92.68
2022-09-23T04:01:20.184Z,92.36
2022-09-23T04:02:20.243Z,92.16
2022-09-23T04:03:20.059Z,92.57
2022-09-23T04:04:20.098Z,92.57
2022-09-23T04:05:20.039Z,92.57
2022-09-23T04:06:20.020Z,92.47
2022-09-23T04:07:19.998Z,92.36
2022-09-23T04:08:19.996Z,92.26
2022-09-23T04:09:19.975Z,92.26
2022-09-23T04:10:20.020Z,92.16
2022-09-23T04:11:19.989Z,92.88
2022-09-23T04:12:19.955Z,92.88
2022-09-23T04:13:19.934Z,92.98
2022-09-23T04:14:19.935Z,92.98
2022-09-23T04:15:19.909Z,92.78
2022-09-23T04:16:19.964Z,92.47
2022-09-23T04:17:19.880Z,92.47
2022-09-23T04:18:19.859Z,92.36
2022-09-23T04:19:19.841Z,92.36
2022-09-23T04:20:19.834Z,92.16
2022-09-23T04:21:19.851Z,92.68
2022-09-23T04:22:19.805Z,92.51
2022-09-23T04:23:19.801Z,92.93
2022-09-23T04:24:19.818Z,93.13
2022-09-23T04:25:19.805Z,93.02
2022-09-23T04:26:19.787Z,93.13
2022-09-23T04:27:19.770Z,93.23
2022-09-23T04:28:19.723Z,93.65
2022-09-23T04:29:19.719Z,93.65
2022-09-23T04:30:19.703Z,93.65
2022-09-23T04:31:19.750Z,93.33
2022-09-23T04:32:19.699Z,93.13
2022-09-23T04:33:19.656Z,93.02
2022-09-23T04:34:19.655Z,92.72
2022-09-23T04:35:19.629Z,92.30
2022-09-23T04:36:19.627Z,92.51
2022-09-23T04:37:19.632Z,92.51
2022-09-23T04:38:19.603Z,93.33
2022-09-23T04:39:19.576Z,93.75
2022-09-23T04:40:19.626Z,94.06
2022-09-23T04:41:19.579Z,94.17
2022-09-23T04:42:19.568Z,93.96
2022-09-23T04:43:19.536Z,93.75
2022-09-23T04:44:19.524Z,93.85
2022-09-23T04:45:19.504Z,93.96
2022-09-23T04:46:19.558Z,94.17
2022-09-23T04:47:19.522Z,93.85
2022-09-23T04:48:19.470Z,93.75
2022-09-23T04:49:19.454Z,93.44
2022-09-23T04:50:19.444Z,93.29
2022-09-23T04:51:19.419Z,93.19
2022-09-23T04:52:19.441Z,92.88
2022-09-23T04:53:19.399Z,92.47
2022-09-23T04:54:19.405Z,92.26
2022-09-23T04:55:19.381Z,92.05
2022-09-23T04:56:19.381Z,91.85
2022-09-23T04:57:19.354Z,91.85
2022-09-23T04:58:19.369Z,91.43
2022-09-23T04:59:19.323Z,91.64
2022-09-23T05:00:19.312Z,91.64
2022-09-23T05:01:19.437Z,91.78
2022-09-23T05:02:19.342Z,91.85
2022-09-23T05:03:19.265Z,91.74
2022-09-23T05:04:19.258Z,91.78
2022-09-23T05:05:19.244Z,91.64
2022-09-23T05:06:19.251Z,91.74
2022-09-23T05:07:19.214Z,91.43
2022-09-23T05:08:19.231Z,91.22
2022-09-23T05:09:19.188Z,91.22
2022-09-23T05:10:19.179Z,92.26
2022-09-23T05:11:19.158Z,92.05
2022-09-23T05:12:19.157Z,92.51
2022-09-23T05:13:19.152Z,92.51
2022-09-23T05:14:19.160Z,92.30
2022-09-23T05:15:19.113Z,92.61
2022-09-23T05:16:19.235Z,92.47
2022-09-23T05:17:19.081Z,92.26
2022-09-23T05:18:20.934Z,92.16
2022-09-23T05:19:19.085Z,92.36
2022-09-23T05:20:19.047Z,92.78
2022-09-23T05:21:19.053Z,92.88
2022-09-23T05:22:19.020Z,92.98
2022-09-23T05:23:18.996Z,92.82
2022-09-23T05:24:18.995Z,92.93
2022-09-23T05:25:19.027Z,93.85
2022-09-23T05:26:18.966Z,93.85
2022-09-23T05:27:18.963Z,93.75
2022-09-23T05:28:18.949Z,93.85
2022-09-23T05:29:18.929Z,93.44
2022-09-23T05:30:18.945Z,93.60
2022-09-23T05:31:20.626Z,93.60
2022-09-23T05:32:18.886Z,93.40
2022-09-23T05:33:18.869Z,93.29
2022-09-23T05:34:18.891Z,93.08
2022-09-23T05:35:18.866Z,93.19
2022-09-23T05:36:18.831Z,93.50
2022-09-23T05:37:18.828Z,93.50
2022-09-23T05:38:18.811Z,93.29
2022-09-23T05:39:18.825Z,93.29
2022-09-23T05:40:18.821Z,93.29
2022-09-23T05:41:18.758Z,93.60
2022-09-23T05:42:18.750Z,94.64
2022-09-23T05:43:18.757Z,94.64
2022-09-23T05:44:18.766Z,94.74
2022-09-23T05:45:18.713Z,94.85
2022-09-23T05:46:18.752Z,94.95
2022-09-23T05:47:18.720Z,94.74
2022-09-23T05:48:18.684Z,94.74
2022-09-23T05:49:18.672Z,94.85
2022-09-23T05:50:18.660Z,94.74
2022-09-23T05:51:18.635Z,94.85
2022-09-23T05:52:18.617Z,94.60
2022-09-23T05:53:18.637Z,94.39
2022-09-23T05:54:18.596Z,94.29
2022-09-23T05:55:18.625Z,94.49
2022-09-23T05:56:18.571Z,94.29
2022-09-23T05:57:18.550Z,94.29
2022-09-23T05:58:18.568Z,94.18
2022-09-23T05:59:18.531Z,94.08
2022-09-23T06:00:18.558Z,93.98
2022-09-23T06:01:18.549Z,93.98
2022-09-23T06:02:18.559Z,93.87
2022-09-23T06:03:18.565Z,93.46
2022-09-23T06:04:18.479Z,93.31
2022-09-23T06:05:18.459Z,93.21
2022-09-23T06:06:18.454Z,93.52
2022-09-23T06:07:18.419Z,93.83
2022-09-23T06:08:18.439Z,93.62
2022-09-23T06:09:18.476Z,93.83
2022-09-23T06:10:18.394Z,93.62
2022-09-23T06:11:18.378Z,93.41
2022-09-23T06:12:18.389Z,93.62
2022-09-23T06:13:18.346Z,93.83
2022-09-23T06:14:18.365Z,93.73
2022-09-23T06:15:18.352Z,93.62
2022-09-23T06:16:18.446Z,93.52
2022-09-23T06:17:18.297Z,93.58
2022-09-23T06:18:18.281Z,94.10
2022-09-23T06:19:18.258Z,93.99
2022-09-23T06:20:18.252Z,93.99
2022-09-23T06:21:18.268Z,93.99
2022-09-23T06:22:18.229Z,93.89
2022-09-23T06:23:18.556Z,93.89
2022-09-23T06:24:22.110Z,94.16
2022-09-23T06:25:18.201Z,94.68
2022-09-23T06:26:18.248Z,94.47
2022-09-23T06:27:18.154Z,94.47
2022-09-23T06:28:18.149Z,94.57
2022-09-23T06:29:18.139Z,94.16
2022-09-23T06:30:18.129Z,94.06
2022-09-23T06:31:18.206Z,93.85
2022-09-23T06:32:18.108Z,93.70
2022-09-23T06:33:27.634Z,93.80
2022-09-23T06:34:18.392Z,94.12
2022-09-23T06:35:26.652Z,93.80
2022-09-23T06:36:34.614Z,93.49
2022-09-23T06:37:20.411Z,93.04
2022-09-23T06:38:18.018Z,93.04
2022-09-23T06:39:17.995Z,93.04
2022-09-23T06:40:18.055Z,93.04
2022-09-23T06:41:18.009Z,92.63
2022-09-23T06:42:17.968Z,92.27
2022-09-23T06:43:17.946Z,91.46
2022-09-23T06:44:17.938Z,89.89
2022-09-23T06:45:17.925Z,87.60
2022-09-23T06:46:17.940Z,84.34
2022-09-23T06:47:17.927Z,81.65
2022-09-23T06:48:17.887Z,79.08
2022-09-23T06:49:17.874Z,79.56
2022-09-23T06:50:17.881Z,78.25
2022-09-23T06:51:17.863Z,77.26
2022-09-23T06:52:17.865Z,76.40
2022-09-23T06:53:17.843Z,76.44
2022-09-23T06:54:17.809Z,76.27
2022-09-23T06:55:17.798Z,74.49
2022-09-23T06:56:17.786Z,73.23
2022-09-23T06:57:17.801Z,72.69
2022-09-23T06:58:17.757Z,72.34
2022-09-23T06:59:17.737Z,71.42
2022-09-23T07:00:17.729Z,72.28
2022-09-23T07:01:17.761Z,72.72
2022-09-23T07:02:17.877Z,73.47
2022-09-23T07:03:17.690Z,74.32
2022-09-23T07:04:17.677Z,75.65
2022-09-23T07:05:17.656Z,75.99
2022-09-23T07:06:17.646Z,77.26
2022-09-23T07:07:17.657Z,77.77
2022-09-23T07:08:17.690Z,77.61
2022-09-23T07:09:17.600Z,78.42
2022-09-23T07:10:17.602Z,77.50
2022-09-23T07:11:17.571Z,78.12
2022-09-23T07:12:17.590Z,77.91
2022-09-23T07:13:17.552Z,78.94
2022-09-23T07:14:17.593Z,78.67
2022-09-23T07:15:17.581Z,79.08
2022-09-23T07:16:17.586Z,79.08
2022-09-23T07:17:17.523Z,77.95
2022-09-23T07:18:17.512Z,77.84
2022-09-23T07:19:17.479Z,78.56
2022-09-23T07:20:17.467Z,79.49
2022-09-23T07:21:17.480Z,79.49
2022-09-23T07:22:17.463Z,79.38
2022-09-23T07:23:17.414Z,80.00
2022-09-23T07:24:17.546Z,79.80
2022-09-23T07:25:17.395Z,80.41
2022-09-23T07:26:17.374Z,79.63
2022-09-23T07:27:17.411Z,79.01
2022-09-23T07:28:17.373Z,79.22
2022-09-23T07:29:17.338Z,80.35
2022-09-23T07:30:24.538Z,80.45
2022-09-23T07:31:27.990Z,80.65
2022-09-23T07:32:17.425Z,80.76
2022-09-23T07:33:30.462Z,81.37
2022-09-23T07:34:17.288Z,82.40
2022-09-23T07:35:17.273Z,82.36
2022-09-23T07:36:17.300Z,82.40
2022-09-23T07:37:17.233Z,82.19
2022-09-23T07:38:17.325Z,82.05
2022-09-23T07:39:17.238Z,83.49
2022-09-23T07:40:17.228Z,82.77
2022-09-23T07:41:17.176Z,82.77
2022-09-23T07:42:17.164Z,82.67
2022-09-23T07:43:17.151Z,82.36
2022-09-23T07:44:17.139Z,82.15
2022-09-23T07:45:17.159Z,82.26
2022-09-23T07:46:17.142Z,79.90
2022-09-23T07:47:17.180Z,80.10
2022-09-23T07:48:17.079Z,80.41
2022-09-23T07:49:17.079Z,80.82
2022-09-23T07:50:17.051Z,81.50
2022-09-23T07:51:17.068Z,81.40
2022-09-23T07:52:17.087Z,81.91
2022-09-23T07:53:17.013Z,82.42
2022-09-23T07:54:17.072Z,81.60
2022-09-23T07:55:20.842Z,81.29
2022-09-23T07:56:16.969Z,81.81
2022-09-23T07:57:16.964Z,82.39
2022-09-23T07:58:16.938Z,82.39
2022-09-23T07:59:16.962Z,81.26
2022-09-23T08:00:16.915Z,82.04
2022-09-23T08:01:16.994Z,81.94
2022-09-23T08:02:16.993Z,80.26
2022-09-23T08:03:16.964Z,80.67
2022-09-23T08:04:16.892Z,80.33
2022-09-23T08:05:16.855Z,79.71
2022-09-23T08:06:16.835Z,80.02
2022-09-23T08:07:16.897Z,79.10
2022-09-23T08:08:16.811Z,78.34
2022-09-23T08:09:16.838Z,76.81
2022-09-23T08:10:16.793Z,74.19
2022-09-23T08:11:16.792Z,75.82
2022-09-23T08:12:16.756Z,75.93
2022-09-23T08:13:16.751Z,76.23
2022-09-23T08:14:16.775Z,78.08
2022-09-23T08:15:16.726Z,77.87
2022-09-23T08:16:16.767Z,78.45
2022-09-23T08:17:16.703Z,78.24
2022-09-23T08:18:16.906Z,77.73
2022-09-23T08:19:16.664Z,75.65
2022-09-23T08:20:16.666Z,75.55
2022-09-23T08:21:16.639Z,75.24
2022-09-23T08:22:16.679Z,75.51
2022-09-23T08:23:16.621Z,75.92
2022-09-23T08:24:16.659Z,75.21
2022-09-23T08:25:18.894Z,75.27
2022-09-23T08:26:21.680Z,74.25
2022-09-23T08:27:16.569Z,74.01
2022-09-23T08:28:16.545Z,74.11
2022-09-23T08:29:16.563Z,74.90
2022-09-23T08:30:16.514Z,74.45
2022-09-23T08:31:16.605Z,73.64
2022-09-23T08:32:16.521Z,72.69
2022-09-23T08:33:20.909Z,72.69
2022-09-23T08:34:16.465Z,71.84
2022-09-23T08:35:16.452Z,70.00
2022-09-23T08:36:16.446Z,70.68
2022-09-23T08:37:16.457Z,70.38
2022-09-23T08:38:16.413Z,69.06
2022-09-23T08:39:16.416Z,68.65
2022-09-23T08:40:16.420Z,68.71
2022-09-23T08:41:16.408Z,67.69
2022-09-23T08:42:16.391Z,68.71
2022-09-23T08:43:16.351Z,68.68
2022-09-23T08:44:16.390Z,68.27
2022-09-23T08:45:16.333Z,64.61
2022-09-23T08:46:16.323Z,64.72
2022-09-23T08:47:16.283Z,66.61
2022-09-23T08:48:16.281Z,67.33
2022-09-23T08:49:16.310Z,68.44
2022-09-23T08:50:16.251Z,67.40
2022-09-23T08:51:16.240Z,67.10
2022-09-23T08:52:16.255Z,66.79
2022-09-23T08:53:16.206Z,64.83
2022-09-23T08:54:16.219Z,64.93
2022-09-23T08:55:16.181Z,64.12
2022-09-23T08:56:16.173Z,65.74
2022-09-23T08:57:16.160Z,64.22
2022-09-23T08:58:24.922Z,65.61
2022-09-23T08:59:16.163Z,65.20
2022-09-23T09:00:16.197Z,65.58
2022-09-23T09:01:16.180Z,65.07
2022-09-23T09:02:16.169Z,65.45
2022-09-23T09:03:16.098Z,65.24
2022-09-23T09:04:16.089Z,65.31
2022-09-23T09:05:16.055Z,64.70
2022-09-23T09:06:16.034Z,63.66
2022-09-23T09:07:35.838Z,62.54
2022-09-23T09:08:16.016Z,62.75
2022-09-23T09:09:16.029Z,62.72
2022-09-23T09:10:15.981Z,63.02
2022-09-23T09:11:15.973Z,62.72
2022-09-23T09:12:15.988Z,62.69
2022-09-23T09:13:15.944Z,62.29
2022-09-23T09:14:15.950Z,61.95
2022-09-23T09:15:15.946Z,62.46
2022-09-23T09:16:15.961Z,60.63
2022-09-23T09:17:15.896Z,59.92
2022-09-23T09:18:15.898Z,60.30
2022-09-23T09:19:15.888Z,59.70
2022-09-23T09:20:15.854Z,59.87
2022-09-23T09:21:15.870Z,57.75
2022-09-23T09:22:15.826Z,56.43
2022-09-23T09:23:15.835Z,57.85
2022-09-23T09:24:15.796Z,58.65
2022-09-23T09:25:15.795Z,59.44
2022-09-23T09:26:15.797Z,58.40
2022-09-23T09:27:15.762Z,58.50
2022-09-23T09:28:15.739Z,58.50
2022-09-23T09:29:35.293Z,58.37
2022-09-23T09:30:15.746Z,58.54
2022-09-23T09:31:15.730Z,58.22
2022-09-23T09:32:15.709Z,58.62
2022-09-23T09:33:15.691Z,57.08
2022-09-23T09:34:15.656Z,56.88
2022-09-23T09:35:15.647Z,56.85
2022-09-23T09:36:15.631Z,56.45
2022-09-23T09:37:15.651Z,55.24
2022-09-23T09:38:15.668Z,55.91
2022-09-23T09:39:15.597Z,55.31
2022-09-23T09:40:15.627Z,54.99
2022-09-23T09:41:15.584Z,56.20
2022-09-23T09:42:15.545Z,55.96
2022-09-23T09:43:15.547Z,54.25
2022-09-23T09:44:15.551Z,53.72
2022-09-23T09:45:15.511Z,53.12
2022-09-23T09:46:15.573Z,54.23
2022-09-23T09:47:15.498Z,55.61
2022-09-23T09:48:15.494Z,53.77
2022-09-23T09:49:15.487Z,54.88
2022-09-23T09:50:15.443Z,53.25
2022-09-23T09:51:15.435Z,53.25
2022-09-23T09:52:15.448Z,52.34
2022-09-23T09:53:15.358Z,52.84
2022-09-23T09:54:15.344Z,53.14
2022-09-23T09:55:15.351Z,53.14
2022-09-23T09:56:15.352Z,54.22
2022-09-23T09:57:15.317Z,54.33
2022-09-23T09:58:15.294Z,53.42
2022-09-23T09:59:15.274Z,54.02
2022-09-23T10:00:15.256Z,53.62
2022-09-23T10:01:15.296Z,52.80
2022-09-23T10:02:15.245Z,52.39
2022-09-23T10:03:15.257Z,52.69
2022-09-23T10:04:15.254Z,52.49
2022-09-23T10:07:30.221Z,51.37
2022-09-23T10:08:31.200Z,50.26
2022-09-23T10:09:31.272Z,49.96
2022-09-23T10:10:33.576Z,49.76
2022-09-23T10:11:31.160Z,51.44
2022-09-23T10:12:31.138Z,51.74
2022-09-23T10:13:31.171Z,50.21
2022-09-23T10:14:31.114Z,49.21
2022-09-23T10:15:31.096Z,50.49
2022-09-23T10:16:31.097Z,49.49
2022-09-23T10:17:31.061Z,48.38
2022-09-23T10:18:31.081Z,48.08
2022-09-23T10:19:31.069Z,48.08
2022-09-23T10:20:31.040Z,47.88
2022-09-23T10:21:31.015Z,46.86
2022-09-23T10:22:31.003Z,47.88
2022-09-23T10:23:30.985Z,47.96
2022-09-23T10:24:30.999Z,47.76
2022-09-23T10:25:30.961Z,48.26
2022-09-23T10:26:30.939Z,47.66
2022-09-23T10:27:30.930Z,48.44
2022-09-23T10:28:30.906Z,48.44
2022-09-23T10:29:30.927Z,47.34
2022-09-23T10:30:30.915Z,47.64
2022-09-23T10:31:30.966Z,47.11
2022-09-23T10:32:30.865Z,46.42
2022-09-23T10:33:30.874Z,47.44
2022-09-23T10:34:30.839Z,47.52
2022-09-23T10:35:30.825Z,47.42
2022-09-23T10:36:30.809Z,47.22
2022-09-23T10:37:30.840Z,47.69
2022-09-23T10:38:30.806Z,47.79
2022-09-23T10:39:30.803Z,46.69
2022-09-23T10:40:30.827Z,47.17
2022-09-23T10:41:30.759Z,46.87
2022-09-23T10:42:30.732Z,47.65
2022-09-23T10:43:30.722Z,46.45
2022-09-23T10:44:30.728Z,46.53
2022-09-23T10:45:30.687Z,46.92
2022-09-23T10:46:30.784Z,46.83
2022-09-23T10:47:30.673Z,47.00
2022-09-23T10:48:30.675Z,47.30
2022-09-23T10:49:30.641Z,46.88
2022-09-23T10:50:30.629Z,47.38
2022-09-23T10:51:30.616Z,46.66
2022-09-23T10:52:30.634Z,44.87
2022-09-23T10:53:30.699Z,44.76
2022-09-23T10:54:30.616Z,44.57
2022-09-23T10:55:30.590Z,45.68
2022-09-23T10:56:30.543Z,46.38
2022-09-23T10:57:30.565Z,45.39
2022-09-23T10:58:30.529Z,45.86
2022-09-23T10:59:30.541Z,45.76
2022-09-23T11:00:30.591Z,44.94
2022-09-23T11:01:30.519Z,44.82
2022-09-23T11:02:30.477Z,44.02
2022-09-23T11:03:30.461Z,45.72
2022-09-23T11:04:30.502Z,44.90
2022-09-23T11:05:30.487Z,43.90
2022-09-23T11:06:30.438Z,44.60
2022-09-23T11:07:35.051Z,46.00
2022-09-23T11:08:30.428Z,44.80
2022-09-23T11:09:30.382Z,44.80
2022-09-23T11:10:45.399Z,45.67
2022-09-23T11:11:30.384Z,44.48
2022-09-23T11:12:30.380Z,44.48
2022-09-23T11:13:30.346Z,43.37
2022-09-23T11:14:30.317Z,44.76
2022-09-23T11:15:30.327Z,43.76
2022-09-23T11:16:30.373Z,43.54
2022-09-23T11:17:30.285Z,43.15
2022-09-23T11:18:30.265Z,43.74
2022-09-23T11:19:30.259Z,44.14
2022-09-23T11:20:30.243Z,44.04
2022-09-23T11:21:30.264Z,45.03
2022-09-23T11:22:30.219Z,43.94
2022-09-23T11:23:30.218Z,44.24
2022-09-23T11:24:30.205Z,44.32
2022-09-23T11:25:30.187Z,41.83
2022-09-23T11:26:33.089Z,43.13
2022-09-23T11:27:30.161Z,43.70
2022-09-23T11:28:30.136Z,43.40
2022-09-23T11:29:30.188Z,43.70
2022-09-23T11:30:30.237Z,43.28
2022-09-23T11:31:30.135Z,42.31
2022-09-23T11:32:30.083Z,43.20
2022-09-23T11:33:30.081Z,43.40
2022-09-23T11:34:30.067Z,43.60
2022-09-23T11:35:30.078Z,44.70
2022-09-23T11:36:30.040Z,43.70
2022-09-23T11:37:30.054Z,43.80
2022-09-23T11:38:30.005Z,45.79
2022-09-23T11:39:30.003Z,44.40
2022-09-23T11:40:30.138Z,43.40
2022-09-23T11:41:29.971Z,43.88
2022-09-23T11:42:30.000Z,43.18
2022-09-23T11:43:29.997Z,43.38
2022-09-23T11:44:29.941Z,44.48
2022-09-23T11:45:29.921Z,44.18
2022-09-23T11:46:30.003Z,42.79
2022-09-23T11:47:29.893Z,42.27
2022-09-23T11:48:29.889Z,42.07
2022-09-23T11:49:29.885Z,42.58
2022-09-23T11:50:29.847Z,42.29
2022-09-23T11:51:29.881Z,42.09
2022-09-23T11:52:29.827Z,42.58
2022-09-23T11:53:29.817Z,42.39
2022-09-23T11:54:29.811Z,43.01
2022-09-23T11:55:29.790Z,44.10
2022-09-23T11:56:35.483Z,45.29
2022-09-23T11:57:39.370Z,43.90
2022-09-23T11:58:29.848Z,42.91
2022-09-23T11:59:38.356Z,43.20
2022-09-23T12:00:29.735Z,44.02
2022-09-23T12:01:36.282Z,45.61
2022-09-23T12:02:31.044Z,46.70
2022-09-23T12:03:41.862Z,44.10
2022-09-23T12:04:30.262Z,43.02
2022-09-23T12:05:29.791Z,44.42
2022-09-23T12:06:29.651Z,43.72
2022-09-23T12:07:29.675Z,43.82
2022-09-23T12:08:29.622Z,42.63
2022-09-23T12:09:53.959Z,43.32
2022-09-23T12:10:29.600Z,44.81
2022-09-23T12:11:29.591Z,43.64
2022-09-23T12:12:29.579Z,44.93
2022-09-23T12:13:29.597Z,45.23
2022-09-23T12:14:29.579Z,44.54
2022-09-23T12:15:29.551Z,44.93
2022-09-23T12:16:29.619Z,44.84
2022-09-23T12:17:29.542Z,44.84
2022-09-23T12:18:29.500Z,43.52
2022-09-23T12:19:29.494Z,43.82
2022-09-23T12:20:29.463Z,43.82
2022-09-23T12:21:49.201Z,43.64
2022-09-23T12:22:29.473Z,43.84
2022-09-23T12:23:29.428Z,44.34
2022-09-23T12:24:29.415Z,43.84
2022-09-23T12:25:29.408Z,43.54
2022-09-23T12:26:29.385Z,44.64
2022-09-23T12:27:29.409Z,44.54
2022-09-23T12:28:29.380Z,43.74
2022-09-23T12:30:29.430Z,43.74
2022-09-23T12:31:29.328Z,44.74
2022-09-23T12:32:29.343Z,45.03
2022-09-23T12:33:29.296Z,46.03
2022-09-23T12:34:29.288Z,45.23
2022-09-23T12:35:29.276Z,44.93
2022-09-23T12:36:29.281Z,44.81
2022-09-23T12:37:29.249Z,43.52
2022-09-23T12:38:29.222Z,44.64
2022-09-23T12:39:29.223Z,45.14
2022-09-23T12:40:29.299Z,45.33
2022-09-23T12:41:29.218Z,45.33
2022-09-23T12:42:31.214Z,45.14
2022-09-23T12:43:29.169Z,44.54
2022-09-23T12:44:29.158Z,43.64
2022-09-23T12:45:29.172Z,44.02
2022-09-23T12:46:29.136Z,44.74
2022-09-23T12:47:29.119Z,44.64
2022-09-23T12:48:29.107Z,44.93
2022-09-23T12:49:29.129Z,43.84
2022-09-23T12:50:29.076Z,45.81
2022-09-23T12:51:29.060Z,44.42
2022-09-23T12:52:29.079Z,44.02
2022-09-23T12:53:29.035Z,43.62
2022-09-23T12:54:29.085Z,44.29
2022-09-23T12:55:29.024Z,43.52